Flight Track Log - Related Links

Times and Time Zones

All times are in EDT time to prevent confusion due to time zone crossing. See the EGF3382 flight status page for this flight to view local times or setup timezone preferences in your user account.

Time Position Orientation Groundspeed Altitude Reporting Facility
EDT Latitude Longitude Course Direction KTS MPH feet Rate Location/Type
Fri 10:33:52 PM 33.3686 -96.8426 23° Northeast  Level FlightAware Approximate
Fri 10:34:52 PM 33.4622 -96.7956 22° Northeast  Level FlightAware Approximate
Fri 10:35:52 PM 33.5575 -96.7497 15° North  Level FlightAware Approximate
Fri 10:36:52 PM 33.6558 -96.7184 17° North  Level FlightAware Approximate
Fri 10:37:52 PM 33.7529 -96.6821 22° Northeast  Level FlightAware Approximate
Fri 10:38:52 PM 33.8480 -96.6353 18° North  Level FlightAware Approximate
Fri 10:39:52 PM 33.9452 -96.5977 22° Northeast  Level FlightAware Approximate
Fri 10:40:52 PM 34.0401 -96.5505 13° North  Level FlightAware Approximate
Fri 10:41:52 PM 34.1394 -96.5228 19° North  Level FlightAware Approximate
Fri 10:42:52 PM 34.2363 -96.4819 20° North  Level FlightAware Approximate
Fri 10:43:52 PM 34.3325 -96.4385 23° Northeast  Level FlightAware Approximate
Fri 10:44:52 PM 34.4270 -96.3900 17° North  Level FlightAware Approximate
Fri 10:45:52 PM 34.5252 -96.3541 21° North  Level FlightAware Approximate
Fri 10:46:52 PM 34.6210 -96.3092 20° North  Level FlightAware Approximate
Fri 10:47:52 PM 34.7174 -96.2664 24° Northeast  Level FlightAware Approximate
Fri 10:48:52 PM 34.8111 -96.2152 10° North  Level FlightAware Approximate
Fri 10:49:52 PM 34.9103 -96.1949 22° Northeast  Level FlightAware Approximate
Fri 10:50:52 PM 35.0054 -96.1476 25° Northeast  Level FlightAware Approximate
Fri 10:51:52 PM 35.0987 -96.0951 25° Northeast  Level FlightAware Approximate
Fri 10:52:52 PM 35.1919 -96.0425 25° Northeast  Level FlightAware Approximate
Fri 10:53:52 PM 35.2851 -95.9897 25° Northeast  Level FlightAware Approximate
Fri 10:54:52 PM 35.3782 -95.9365 25° Northeast  Level FlightAware Approximate
Fri 10:55:52 PM 35.4712 -95.8831 25° Northeast  Level FlightAware Approximate
Fri 10:56:52 PM 35.5642 -95.8296 25° Northeast  Level FlightAware Approximate
Fri 10:57:52 PM 35.6572 -95.7759 25° Northeast  Level FlightAware Approximate
Fri 10:58:52 PM 35.7499 -95.7217 25° Northeast  Level FlightAware Approximate
Fri 10:59:52 PM 35.8427 -95.6674 25° Northeast  Level FlightAware Approximate
Fri 11:00:52 PM 35.9354 -95.6129 26° Northeast  Level FlightAware Approximate
Fri 11:01:52 PM 36.0280 -95.5581 26° Northeast  Level FlightAware Approximate
Fri 11:02:52 PM 36.1206 -95.5031 26° Northeast  Level FlightAware Approximate
Fri 11:03:52 PM 36.2132 -95.4479 26° Northeast  Level FlightAware Approximate
Fri 11:04:52 PM 36.3057 -95.3926 26° Northeast  Level FlightAware Approximate
Fri 11:05:52 PM 36.3982 -95.3372 26° Northeast  Level FlightAware Approximate
Fri 11:06:52 PM 36.4906 -95.2817 26° Northeast  Level FlightAware Approximate
Fri 11:07:52 PM 36.5831 -95.2260 26° Northeast  Level FlightAware Approximate
Fri 11:08:52 PM 36.6755 -95.1702 26° Northeast  Level FlightAware Approximate
Fri 11:09:52 PM 36.7679 -95.1143 26° Northeast  Level FlightAware Approximate
Fri 11:10:52 PM 36.8603 -95.0583 26° Northeast  Level FlightAware Approximate
Fri 11:11:52 PM 36.9526 -95.0021 26° Northeast  Level FlightAware Approximate
Fri 11:12:52 PM 37.0449 -94.9457 26° Northeast  Level FlightAware Approximate
Fri 11:13:52 PM 37.1372 -94.8892 North  Level FlightAware Approximate
Fri 11:14:52 PM 37.2370 -94.8870 27° Northeast  Level FlightAware Approximate
Fri 11:15:52 PM 37.3285 -94.8285 27° Northeast  Level FlightAware Approximate
Fri 11:16:52 PM 37.4200 -94.7699 27° Northeast  Level FlightAware Approximate
Fri 11:17:52 PM 37.5115 -94.7111 27° Northeast  Level FlightAware Approximate
Fri 11:18:52 PM 37.6029 -94.6522 27° Northeast  Level FlightAware Approximate
Fri 11:19:52 PM 37.6944 -94.5931 27° Northeast  Level FlightAware Approximate
Fri 11:20:52 PM 37.7858 -94.5339 27° Northeast  Level FlightAware Approximate
Fri 11:21:52 PM 37.8771 -94.4745 27° Northeast  Level FlightAware Approximate
Fri 11:22:52 PM 37.9685 -94.4150 27° Northeast  Level FlightAware Approximate
Fri 11:23:52 PM 38.0598 -94.3554 28° Northeast  Level FlightAware Approximate
Fri 11:24:52 PM 38.1505 -94.2943 27° Northeast  Level FlightAware Approximate
Fri 11:25:52 PM 38.2419 -94.2346 27° Northeast  Level FlightAware Approximate
Fri 11:26:52 PM 38.3331 -94.1747 28° Northeast  Level FlightAware Approximate
Fri 11:27:52 PM 38.4234 -94.1123 27° Northeast  Level FlightAware Approximate
Fri 11:28:52 PM 38.5147 -94.0520 27° Northeast  Level FlightAware Approximate
Fri 11:29:52 PM 38.6059 -93.9916 27° Northeast  Level FlightAware Approximate
Fri 11:30:52 PM 38.6970 -93.9311 27° Northeast  Level FlightAware Approximate
Fri 11:31:52 PM 38.7882 -93.8704 27° Northeast  Level FlightAware Approximate
Fri 11:32:52 PM 38.8793 -93.8095 28° Northeast  Level FlightAware Approximate
Fri 11:33:52 PM 38.9703 -93.7486 28° Northeast  Level FlightAware Approximate
Fri 11:34:52 PM 39.0614 -93.6874 28° Northeast  Level FlightAware Approximate
Fri 11:35:52 PM 39.1524 -93.6261 28° Northeast  Level FlightAware Approximate
Fri 11:36:52 PM 39.2434 -93.5646 25° Northeast  Level FlightAware Approximate
Fri 11:37:52 PM 39.3364 -93.5086 28° Northeast  Level FlightAware Approximate
Fri 11:38:52 PM 39.4272 -93.4466 28° Northeast  Level FlightAware Approximate
Fri 11:39:52 PM 39.5180 -93.3844 28° Northeast  Level FlightAware Approximate
Fri 11:40:52 PM 39.6088 -93.3221 28° Northeast  Level FlightAware Approximate
Fri 11:41:52 PM 39.6992 -93.2590 28° Northeast  Level FlightAware Approximate
Fri 11:42:52 PM 39.7897 -93.1958 28° Northeast  Level FlightAware Approximate
Fri 11:43:52 PM 39.8804 -93.1330 27° Northeast  Level FlightAware Approximate
Fri 11:44:52 PM 39.9715 -93.0715 28° Northeast  Level FlightAware Approximate
Fri 11:45:52 PM 40.0621 -93.0083 31° Northeast  Level FlightAware Approximate
Fri 11:46:52 PM 40.1503 -92.9398 26° Northeast  Level FlightAware Approximate
Fri 11:47:52 PM 40.2426 -92.8812 28° Northeast  Level FlightAware Approximate
Fri 11:48:52 PM 40.3331 -92.8176 29° Northeast  Level FlightAware Approximate
Fri 11:49:52 PM 40.4226 -92.7516 27° Northeast  Level FlightAware Approximate
Fri 11:50:52 PM 40.5142 -92.6905 27° Northeast  Level FlightAware Approximate
Fri 11:51:52 PM 40.6048 -92.6286 32° Northeast  Level FlightAware Approximate
Fri 11:52:52 PM 40.6914 -92.5565 29° Northeast  Level FlightAware Approximate
Fri 11:53:52 PM 40.7810 -92.4902 28° Northeast  Level FlightAware Approximate
Fri 11:54:52 PM 40.8715 -92.4261 28° Northeast  Level FlightAware Approximate
Fri 11:55:52 PM 40.9621 -92.3619 28° Northeast  Level FlightAware Approximate
Fri 11:56:52 PM 41.0525 -92.2975 28° Northeast  Level FlightAware Approximate
Fri 11:57:52 PM 41.1430 -92.2330 26° Northeast  Level FlightAware Approximate
Fri 11:58:52 PM 41.2350 -92.1729 29° Northeast  Level FlightAware Approximate
Fri 11:59:52 PM 41.3251 -92.1073 28° Northeast  Level FlightAware Approximate
Sat 12:00:52 AM 41.4155 -92.0442 29° Northeast  Level FlightAware Approximate
Sat 12:01:52 AM 41.5053 -91.9778 27° Northeast  Level FlightAware Approximate
Sat 12:02:52 AM 41.5966 -91.9151 29° Northeast  Level FlightAware Approximate
Sat 12:03:52 AM 41.6863 -91.8480 31° Northeast  Level FlightAware Approximate
Sat 12:04:52 AM 41.7741 -91.7777 28° Northeast  Level FlightAware Approximate
Sat 12:05:52 AM 41.8646 -91.7125 North  Level FlightAware Approximate
Sat 12:06:52 AM 41.9670 -91.7037 178° South  Level Estimated
Sat 12:07:52 AM 41.8833 -91.7000 178° South  Level FlightAware Approximate

Login

Don't have an account? Register now (free) for customized features, flight alerts, and more!